sensor_id;sensor_type;location;lat;lon;timestamp;temperature;humidity
9118;DHT22;4594;50.994;7.126;2023-03-01T00:01:30;0.80;25.10
9118;DHT22;4594;50.994;7.126;2023-03-01T00:03:57;0.80;25.20
9118;DHT22;4594;50.994;7.126;2023-03-01T00:06:24;0.80;25.20
9118;DHT22;4594;50.994;7.126;2023-03-01T00:08:50;0.70;25.20
9118;DHT22;4594;50.994;7.126;2023-03-01T00:11:23;0.70;25.10
9118;DHT22;4594;50.994;7.126;2023-03-01T00:13:55;0.70;25.20
9118;DHT22;4594;50.994;7.126;2023-03-01T00:16:26;0.70;25.10
9118;DHT22;4594;50.994;7.126;2023-03-01T00:18:54;0.70;25.20
9118;DHT22;4594;50.994;7.126;2023-03-01T00:21:21;0.60;25.10
9118;DHT22;4594;50.994;7.126;2023-03-01T00:23:48;0.60;25.10
9118;DHT22;4594;50.994;7.126;2023-03-01T00:26:15;0.60;25.10
9118;DHT22;4594;50.994;7.126;2023-03-01T00:28:41;0.50;25.10
9118;DHT22;4594;50.994;7.126;2023-03-01T00:31:17;0.50;25.10
9118;DHT22;4594;50.994;7.126;2023-03-01T00:33:45;0.50;25.10
9118;DHT22;4594;50.994;7.126;2023-03-01T00:36:13;0.50;25.10
9118;DHT22;4594;50.994;7.126;2023-03-01T00:38:43;0.40;25.10
9118;DHT22;4594;50.994;7.126;2023-03-01T00:41:12;0.40;25.10
9118;DHT22;4594;50.994;7.126;2023-03-01T00:43:40;0.40;25.10
9118;DHT22;4594;50.994;7.126;2023-03-01T00:46:14;0.40;25.10
9118;DHT22;4594;50.994;7.126;2023-03-01T00:48:42;0.30;25.20
9118;DHT22;4594;50.994;7.126;2023-03-01T00:51:13;0.30;25.10
9118;DHT22;4594;50.994;7.126;2023-03-01T00:53:44;0.30;25.20
9118;DHT22;4594;50.994;7.126;2023-03-01T00:56:12;0.20;25.10
9118;DHT22;4594;50.994;7.126;2023-03-01T00:58:39;0.20;25.10
9118;DHT22;4594;50.994;7.126;2023-03-01T01:01:15;0.20;25.10
9118;DHT22;4594;50.994;7.126;2023-03-01T01:03:45;0.20;25.30
9118;DHT22;4594;50.994;7.126;2023-03-01T01:06:16;0.10;25.10
9118;DHT22;4594;50.994;7.126;2023-03-01T01:08:47;0.10;25.20
9118;DHT22;4594;50.994;7.126;2023-03-01T01:11:13;0.10;25.20
9118;DHT22;4594;50.994;7.126;2023-03-01T01:13:40;0.10;25.20
9118;DHT22;4594;50.994;7.126;2023-03-01T01:16:07;0.00;25.20
9118;DHT22;4594;50.994;7.126;2023-03-01T01:18:33;0.00;25.20
9118;DHT22;4594;50.994;7.126;2023-03-01T01:21:05;0.00;25.20
9118;DHT22;4594;50.994;7.126;2023-03-01T01:23:32;0.00;25.30
9118;DHT22;4594;50.994;7.126;2023-03-01T01:26:04;0.00;25.20
9118;DHT22;4594;50.994;7.126;2023-03-01T01:28:30;0.00;25.40
9118;DHT22;4594;50.994;7.126;2023-03-01T01:30:56;-0.10;25.20
9118;DHT22;4594;50.994;7.126;2023-03-01T01:33:22;-0.10;25.20
9118;DHT22;4594;50.994;7.126;2023-03-01T01:35:48;-0.10;25.20
9118;DHT22;4594;50.994;7.126;2023-03-01T01:38:13;-0.10;25.20
9118;DHT22;4594;50.994;7.126;2023-03-01T01:40:46;-0.20;25.20
9118;DHT22;4594;50.994;7.126;2023-03-01T01:43:23;-0.20;25.40
9118;DHT22;4594;50.994;7.126;2023-03-01T01:45:52;-0.20;25.40
9118;DHT22;4594;50.994;7.126;2023-03-01T01:48:24;-0.20;25.30
9118;DHT22;4594;50.994;7.126;2023-03-01T01:51:06;-0.30;25.20
9118;DHT22;4594;50.994;7.126;2023-03-01T01:53:37;-0.30;25.20
9118;DHT22;4594;50.994;7.126;2023-03-01T01:56:07;-0.30;25.20
9118;DHT22;4594;50.994;7.126;2023-03-01T01:58:36;-0.30;25.30
9118;DHT22;4594;50.994;7.126;2023-03-01T02:01:03;-0.30;25.30
9118;DHT22;4594;50.994;7.126;2023-03-01T02:03:32;-0.40;25.30
9118;DHT22;4594;50.994;7.126;2023-03-01T02:09:13;-0.40;25.50
9118;DHT22;4594;50.994;7.126;2023-03-01T02:11:41;-0.40;25.30
9118;DHT22;4594;50.994;7.126;2023-03-01T02:14:08;-0.40;25.20
9118;DHT22;4594;50.994;7.126;2023-03-01T02:16:35;-0.50;25.20
9118;DHT22;4594;50.994;7.126;2023-03-01T02:19:01;-0.50;25.30
9118;DHT22;4594;50.994;7.126;2023-03-01T02:24:33;-0.50;25.40
9118;DHT22;4594;50.994;7.126;2023-03-01T02:27:00;-0.50;25.60
9118;DHT22;4594;50.994;7.126;2023-03-01T02:29:27;-0.50;25.30
9118;DHT22;4594;50.994;7.126;2023-03-01T02:31:54;-0.50;25.40
9118;DHT22;4594;50.994;7.126;2023-03-01T02:34:24;-0.50;25.40
9118;DHT22;4594;50.994;7.126;2023-03-01T02:36:55;-0.40;25.50
9118;DHT22;4594;50.994;7.126;2023-03-01T02:39:44;-0.40;25.60
9118;DHT22;4594;50.994;7.126;2023-03-01T02:42:22;-0.30;25.70
9118;DHT22;4594;50.994;7.126;2023-03-01T02:44:55;-0.30;25.50
9118;DHT22;4594;50.994;7.126;2023-03-01T02:47:21;-0.20;25.50
9118;DHT22;4594;50.994;7.126;2023-03-01T02:49:47;-0.20;25.60
9118;DHT22;4594;50.994;7.126;2023-03-01T02:52:30;-0.10;25.70
9118;DHT22;4594;50.994;7.126;2023-03-01T02:55:08;-0.10;25.80
9118;DHT22;4594;50.994;7.126;2023-03-01T02:57:38;-0.10;25.60
9118;DHT22;4594;50.994;7.126;2023-03-01T03:00:11;-0.10;25.60
9118;DHT22;4594;50.994;7.126;2023-03-01T03:02:46;-0.10;25.60
9118;DHT22;4594;50.994;7.126;2023-03-01T03:05:16;-0.10;25.50
9118;DHT22;4594;50.994;7.126;2023-03-01T03:07:46;-0.10;25.60
9118;DHT22;4594;50.994;7.126;2023-03-01T03:10:18;-0.10;25.60
9118;DHT22;4594;50.994;7.126;2023-03-01T03:12:55;-0.10;25.60
9118;DHT22;4594;50.994;7.126;2023-03-01T03:15:26;-0.10;25.60
9118;DHT22;4594;50.994;7.126;2023-03-01T03:17:54;-0.10;25.60
9118;DHT22;4594;50.994;7.126;2023-03-01T03:20:24;-0.10;25.80
9118;DHT22;4594;50.994;7.126;2023-03-01T03:22:54;-0.10;25.60
9118;DHT22;4594;50.994;7.126;2023-03-01T03:25:22;-0.10;25.60
9118;DHT22;4594;50.994;7.126;2023-03-01T03:27:49;-0.10;25.60
9118;DHT22;4594;50.994;7.126;2023-03-01T03:30:22;0.00;25.50
9118;DHT22;4594;50.994;7.126;2023-03-01T03:32:50;0.00;25.60
9118;DHT22;4594;50.994;7.126;2023-03-01T03:35:31;0.00;25.60
9118;DHT22;4594;50.994;7.126;2023-03-01T03:38:00;0.00;25.80
9118;DHT22;4594;50.994;7.126;2023-03-01T03:40:40;0.10;25.70
9118;DHT22;4594;50.994;7.126;2023-03-01T03:43:10;0.10;25.80
9118;DHT22;4594;50.994;7.126;2023-03-01T03:45:39;0.10;25.70
9118;DHT22;4594;50.994;7.126;2023-03-01T03:48:06;0.10;25.70
9118;DHT22;4594;50.994;7.126;2023-03-01T03:50:34;0.20;25.70
9118;DHT22;4594;50.994;7.126;2023-03-01T03:53:02;0.20;25.80
9118;DHT22;4594;50.994;7.126;2023-03-01T03:55:30;0.20;25.80
9118;DHT22;4594;50.994;7.126;2023-03-01T03:58:00;0.20;25.80
9118;DHT22;4594;50.994;7.126;2023-03-01T04:00:28;0.20;25.80
9118;DHT22;4594;50.994;7.126;2023-03-01T04:02:54;0.20;25.70
9118;DHT22;4594;50.994;7.126;2023-03-01T04:05:22;0.20;25.80
9118;DHT22;4594;50.994;7.126;2023-03-01T04:07:48;0.20;25.80
9118;DHT22;4594;50.994;7.126;2023-03-01T04:10:15;0.20;25.70
9118;DHT22;4594;50.994;7.126;2023-03-01T04:12:43;0.20;25.60
9118;DHT22;4594;50.994;7.126;2023-03-01T04:15:10;0.20;25.70
9118;DHT22;4594;50.994;7.126;2023-03-01T04:17:43;0.30;25.80
9118;DHT22;4594;50.994;7.126;2023-03-01T04:20:14;0.30;25.80
9118;DHT22;4594;50.994;7.126;2023-03-01T04:23:03;0.30;25.70
9118;DHT22;4594;50.994;7.126;2023-03-01T04:25:58;0.30;25.80
9118;DHT22;4594;50.994;7.126;2023-03-01T04:28:28;0.30;26.00
9118;DHT22;4594;50.994;7.126;2023-03-01T04:31:10;0.30;25.70
9118;DHT22;4594;50.994;7.126;2023-03-01T04:33:53;0.30;25.80
9118;DHT22;4594;50.994;7.126;2023-03-01T04:36:23;0.30;25.60
9118;DHT22;4594;50.994;7.126;2023-03-01T04:38:51;0.30;25.80
9118;DHT22;4594;50.994;7.126;2023-03-01T04:41:19;0.30;25.80
9118;DHT22;4594;50.994;7.126;2023-03-01T04:43:46;0.30;25.80
9118;DHT22;4594;50.994;7.126;2023-03-01T04:46:16;0.30;25.70
9118;DHT22;4594;50.994;7.126;2023-03-01T04:48:44;0.30;25.80
9118;DHT22;4594;50.994;7.126;2023-03-01T04:51:12;0.30;25.80
9118;DHT22;4594;50.994;7.126;2023-03-01T04:53:42;0.40;25.80
9118;DHT22;4594;50.994;7.126;2023-03-01T04:56:08;0.40;25.70
9118;DHT22;4594;50.994;7.126;2023-03-01T04:58:34;0.40;25.70
9118;DHT22;4594;50.994;7.126;2023-03-01T05:01:00;0.40;25.80
9118;DHT22;4594;50.994;7.126;2023-03-01T05:03:26;0.40;25.70
9118;DHT22;4594;50.994;7.126;2023-03-01T05:05:53;0.40;25.70
9118;DHT22;4594;50.994;7.126;2023-03-01T05:08:19;0.50;25.90
9118;DHT22;4594;50.994;7.126;2023-03-01T05:10:49;0.50;25.80
9118;DHT22;4594;50.994;7.126;2023-03-01T05:13:17;0.50;25.90
9118;DHT22;4594;50.994;7.126;2023-03-01T05:15:58;0.50;25.80
9118;DHT22;4594;50.994;7.126;2023-03-01T05:18:25;0.50;25.90
9118;DHT22;4594;50.994;7.126;2023-03-01T05:21:02;0.50;25.80
9118;DHT22;4594;50.994;7.126;2023-03-01T05:23:33;0.50;26.00
9118;DHT22;4594;50.994;7.126;2023-03-01T05:26:00;0.50;25.80
9118;DHT22;4594;50.994;7.126;2023-03-01T05:28:29;0.60;25.80
9118;DHT22;4594;50.994;7.126;2023-03-01T05:30:56;0.60;25.90
9118;DHT22;4594;50.994;7.126;2023-03-01T05:33:23;0.60;25.80
9118;DHT22;4594;50.994;7.126;2023-03-01T05:35:50;0.60;25.90
9118;DHT22;4594;50.994;7.126;2023-03-01T05:38:18;0.60;25.90
9118;DHT22;4594;50.994;7.126;2023-03-01T05:40:46;0.60;25.90
9118;DHT22;4594;50.994;7.126;2023-03-01T05:43:15;0.60;25.80
9118;DHT22;4594;50.994;7.126;2023-03-01T05:45:42;0.70;25.90
9118;DHT22;4594;50.994;7.126;2023-03-01T05:48:09;0.70;25.90
9118;DHT22;4594;50.994;7.126;2023-03-01T05:50:39;0.70;25.90
9118;DHT22;4594;50.994;7.126;2023-03-01T05:53:12;0.70;26.00
9118;DHT22;4594;50.994;7.126;2023-03-01T05:55:43;0.70;26.00
9118;DHT22;4594;50.994;7.126;2023-03-01T05:58:11;0.70;25.90
9118;DHT22;4594;50.994;7.126;2023-03-01T06:00:43;0.70;25.90
9118;DHT22;4594;50.994;7.126;2023-03-01T06:03:11;0.70;25.90
9118;DHT22;4594;50.994;7.126;2023-03-01T06:05:39;0.70;25.90
9118;DHT22;4594;50.994;7.126;2023-03-01T06:08:05;0.80;26.00
9118;DHT22;4594;50.994;7.126;2023-03-01T06:10:32;0.80;25.90
9118;DHT22;4594;50.994;7.126;2023-03-01T06:12:58;0.90;26.00
9118;DHT22;4594;50.994;7.126;2023-03-01T06:15:25;0.90;26.10
9118;DHT22;4594;50.994;7.126;2023-03-01T06:17:51;1.00;26.10
9118;DHT22;4594;50.994;7.126;2023-03-01T06:20:22;1.00;26.10
9118;DHT22;4594;50.994;7.126;2023-03-01T06:22:49;1.10;26.20
9118;DHT22;4594;50.994;7.126;2023-03-01T06:25:18;1.10;26.10
9118;DHT22;4594;50.994;7.126;2023-03-01T06:27:46;1.20;26.10
9118;DHT22;4594;50.994;7.126;2023-03-01T06:30:14;1.20;26.00
9118;DHT22;4594;50.994;7.126;2023-03-01T06:32:41;1.30;26.10
9118;DHT22;4594;50.994;7.126;2023-03-01T06:35:14;1.30;26.10
9118;DHT22;4594;50.994;7.126;2023-03-01T06:37:43;1.30;26.10
9118;DHT22;4594;50.994;7.126;2023-03-01T06:40:10;1.30;26.10
9118;DHT22;4594;50.994;7.126;2023-03-01T06:42:38;1.30;26.20
9118;DHT22;4594;50.994;7.126;2023-03-01T06:45:06;1.40;26.30
9118;DHT22;4594;50.994;7.126;2023-03-01T06:47:33;1.40;26.20
9118;DHT22;4594;50.994;7.126;2023-03-01T06:50:02;1.50;26.30
9118;DHT22;4594;50.994;7.126;2023-03-01T06:52:29;1.60;26.50
9118;DHT22;4594;50.994;7.126;2023-03-01T06:54:54;1.80;26.70
9118;DHT22;4594;50.994;7.126;2023-03-01T06:57:20;2.00;26.90
9118;DHT22;4594;50.994;7.126;2023-03-01T06:59:47;2.30;27.10
9118;DHT22;4594;50.994;7.126;2023-03-01T07:02:13;2.60;27.30
9118;DHT22;4594;50.994;7.126;2023-03-01T07:04:40;2.90;27.30
9118;DHT22;4594;50.994;7.126;2023-03-01T07:07:06;3.30;27.40
9118;DHT22;4594;50.994;7.126;2023-03-01T07:09:33;3.60;27.40
9118;DHT22;4594;50.994;7.126;2023-03-01T07:11:58;3.90;27.50
9118;DHT22;4594;50.994;7.126;2023-03-01T07:14:25;4.20;27.60
9118;DHT22;4594;50.994;7.126;2023-03-01T07:16:52;4.50;27.70
9118;DHT22;4594;50.994;7.126;2023-03-01T07:19:18;4.90;27.80
9118;DHT22;4594;50.994;7.126;2023-03-01T07:21:44;5.20;27.80
9118;DHT22;4594;50.994;7.126;2023-03-01T07:24:10;5.60;27.90
9118;DHT22;4594;50.994;7.126;2023-03-01T07:26:36;5.80;27.90
9118;DHT22;4594;50.994;7.126;2023-03-01T07:29:06;6.20;28.00
9118;DHT22;4594;50.994;7.126;2023-03-01T07:31:33;6.50;28.10
9118;DHT22;4594;50.994;7.126;2023-03-01T07:33:59;6.80;28.10
9118;DHT22;4594;50.994;7.126;2023-03-01T07:36:25;7.10;28.10
9118;DHT22;4594;50.994;7.126;2023-03-01T07:38:51;7.50;28.30
9118;DHT22;4594;50.994;7.126;2023-03-01T07:41:20;7.80;28.40
9118;DHT22;4594;50.994;7.126;2023-03-01T07:43:46;8.10;28.10
9118;DHT22;4594;50.994;7.126;2023-03-01T07:46:12;8.30;28.00
9118;DHT22;4594;50.994;7.126;2023-03-01T07:48:38;8.50;28.00
9118;DHT22;4594;50.994;7.126;2023-03-01T07:51:05;8.60;28.00
9118;DHT22;4594;50.994;7.126;2023-03-01T07:53:35;8.90;28.10
9118;DHT22;4594;50.994;7.126;2023-03-01T07:56:11;9.10;28.10
9118;DHT22;4594;50.994;7.126;2023-03-01T07:58:41;9.30;28.20
9118;DHT22;4594;50.994;7.126;2023-03-01T08:01:13;9.60;28.00
9118;DHT22;4594;50.994;7.126;2023-03-01T08:03:40;9.80;28.00
9118;DHT22;4594;50.994;7.126;2023-03-01T08:06:09;10.00;27.50
9118;DHT22;4594;50.994;7.126;2023-03-01T08:08:36;10.20;27.50
9118;DHT22;4594;50.994;7.126;2023-03-01T08:11:04;10.50;27.70
9118;DHT22;4594;50.994;7.126;2023-03-01T08:13:32;10.70;27.80
9118;DHT22;4594;50.994;7.126;2023-03-01T08:16:03;10.90;28.00
9118;DHT22;4594;50.994;7.126;2023-03-01T08:18:30;11.10;28.10
9118;DHT22;4594;50.994;7.126;2023-03-01T08:20:56;11.40;28.40
9118;DHT22;4594;50.994;7.126;2023-03-01T08:23:26;11.80;28.60
9118;DHT22;4594;50.994;7.126;2023-03-01T08:25:51;12.20;28.80
9118;DHT22;4594;50.994;7.126;2023-03-01T08:28:18;12.60;28.90
9118;DHT22;4594;50.994;7.126;2023-03-01T08:30:43;13.20;29.20
9118;DHT22;4594;50.994;7.126;2023-03-01T08:33:09;13.70;29.30
9118;DHT22;4594;50.994;7.126;2023-03-01T08:35:35;14.10;29.30
9118;DHT22;4594;50.994;7.126;2023-03-01T08:38:00;14.50;29.20
9118;DHT22;4594;50.994;7.126;2023-03-01T08:40:26;14.90;29.00
9118;DHT22;4594;50.994;7.126;2023-03-01T08:42:51;15.20;29.00
9118;DHT22;4594;50.994;7.126;2023-03-01T08:45:18;15.60;29.00
9118;DHT22;4594;50.994;7.126;2023-03-01T08:47:44;15.80;28.90
9118;DHT22;4594;50.994;7.126;2023-03-01T08:50:10;16.10;29.00
9118;DHT22;4594;50.994;7.126;2023-03-01T08:52:36;16.50;29.20
9118;DHT22;4594;50.994;7.126;2023-03-01T08:55:02;16.80;29.40
9118;DHT22;4594;50.994;7.126;2023-03-01T08:57:28;17.30;29.70
9118;DHT22;4594;50.994;7.126;2023-03-01T08:59:53;17.70;29.60
9118;DHT22;4594;50.994;7.126;2023-03-01T09:02:21;18.10;29.40
9118;DHT22;4594;50.994;7.126;2023-03-01T09:04:47;18.40;29.10
9118;DHT22;4594;50.994;7.126;2023-03-01T09:07:13;18.70;29.00
9118;DHT22;4594;50.994;7.126;2023-03-01T09:09:38;18.80;28.80
9118;DHT22;4594;50.994;7.126;2023-03-01T09:12:04;18.80;28.40
9118;DHT22;4594;50.994;7.126;2023-03-01T09:14:31;19.00;28.10
9118;DHT22;4594;50.994;7.126;2023-03-01T09:16:56;19.00;28.40
9118;DHT22;4594;50.994;7.126;2023-03-01T09:19:22;19.00;28.10
9118;DHT22;4594;50.994;7.126;2023-03-01T09:21:48;18.90;28.10
9118;DHT22;4594;50.994;7.126;2023-03-01T09:24:23;18.90;28.20
9118;DHT22;4594;50.994;7.126;2023-03-01T09:26:49;19.00;28.20
9118;DHT22;4594;50.994;7.126;2023-03-01T09:29:17;19.10;28.10
9118;DHT22;4594;50.994;7.126;2023-03-01T09:31:43;19.20;28.00
9118;DHT22;4594;50.994;7.126;2023-03-01T09:34:09;19.30;28.20
9118;DHT22;4594;50.994;7.126;2023-03-01T09:36:36;19.30;28.10
9118;DHT22;4594;50.994;7.126;2023-03-01T09:39:03;19.50;28.20
9118;DHT22;4594;50.994;7.126;2023-03-01T09:41:42;19.60;28.30
9118;DHT22;4594;50.994;7.126;2023-03-01T09:44:35;19.90;28.30
9118;DHT22;4594;50.994;7.126;2023-03-01T09:47:12;20.10;28.40
9118;DHT22;4594;50.994;7.126;2023-03-01T09:50:09;20.40;28.50
9118;DHT22;4594;50.994;7.126;2023-03-01T09:55:54;21.10;28.80
9118;DHT22;4594;50.994;7.126;2023-03-01T09:58:34;21.50;28.30
9118;DHT22;4594;50.994;7.126;2023-03-01T10:04:03;21.90;28.90
9118;DHT22;4594;50.994;7.126;2023-03-01T10:06:30;22.20;28.40
9118;DHT22;4594;50.994;7.126;2023-03-01T10:09:05;22.40;28.60
9118;DHT22;4594;50.994;7.126;2023-03-01T10:11:43;22.60;28.20
9118;DHT22;4594;50.994;7.126;2023-03-01T10:14:38;22.70;28.00
9118;DHT22;4594;50.994;7.126;2023-03-01T10:17:34;22.80;28.20
9118;DHT22;4594;50.994;7.126;2023-03-01T10:20:24;22.90;28.10
9118;DHT22;4594;50.994;7.126;2023-03-01T10:22:52;23.10;28.30
9118;DHT22;4594;50.994;7.126;2023-03-01T10:26:40;23.20;28.40
9118;DHT22;4594;50.994;7.126;2023-03-01T10:29:11;23.40;27.70
9118;DHT22;4594;50.994;7.126;2023-03-01T10:31:46;23.50;28.40
9118;DHT22;4594;50.994;7.126;2023-03-01T10:36:56;23.70;27.80
9118;DHT22;4594;50.994;7.126;2023-03-01T10:39:26;23.60;27.80
9118;DHT22;4594;50.994;7.126;2023-03-01T10:41:58;23.60;27.70
9118;DHT22;4594;50.994;7.126;2023-03-01T10:47:18;23.40;27.10
9118;DHT22;4594;50.994;7.126;2023-03-01T10:50:03;23.20;27.30
9118;DHT22;4594;50.994;7.126;2023-03-01T10:52:34;23.10;27.20
9118;DHT22;4594;50.994;7.126;2023-03-01T10:55:26;22.90;27.10
9118;DHT22;4594;50.994;7.126;2023-03-01T10:58:29;22.70;26.60
9118;DHT22;4594;50.994;7.126;2023-03-01T11:01:05;22.30;26.20
9118;DHT22;4594;50.994;7.126;2023-03-01T11:04:10;21.80;26.10
9118;DHT22;4594;50.994;7.126;2023-03-01T11:06:42;21.10;25.40
9118;DHT22;4594;50.994;7.126;2023-03-01T11:09:22;20.50;25.40
9118;DHT22;4594;50.994;7.126;2023-03-01T11:11:54;19.90;25.00
9118;DHT22;4594;50.994;7.126;2023-03-01T11:14:27;19.20;24.70
9118;DHT22;4594;50.994;7.126;2023-03-01T11:17:12;18.60;24.50
9118;DHT22;4594;50.994;7.126;2023-03-01T11:22:55;17.40;24.20
9118;DHT22;4594;50.994;7.126;2023-03-01T11:25:35;16.90;24.20
9118;DHT22;4594;50.994;7.126;2023-03-01T11:28:05;16.40;24.10
9118;DHT22;4594;50.994;7.126;2023-03-01T11:30:38;16.00;24.00
9118;DHT22;4594;50.994;7.126;2023-03-01T11:33:20;15.70;23.90
9118;DHT22;4594;50.994;7.126;2023-03-01T11:38:35;15.10;23.80
9118;DHT22;4594;50.994;7.126;2023-03-01T11:43:49;14.50;23.50
9118;DHT22;4594;50.994;7.126;2023-03-01T11:50:15;13.90;23.40
9118;DHT22;4594;50.994;7.126;2023-03-01T11:53:04;13.60;23.40
9118;DHT22;4594;50.994;7.126;2023-03-01T11:59:13;13.20;23.30
9118;DHT22;4594;50.994;7.126;2023-03-01T12:05:17;12.80;23.20
9118;DHT22;4594;50.994;7.126;2023-03-01T12:08:23;12.60;23.20
9118;DHT22;4594;50.994;7.126;2023-03-01T12:11:22;12.40;23.10
9118;DHT22;4594;50.994;7.126;2023-03-01T12:17:20;12.20;23.20
9118;DHT22;4594;50.994;7.126;2023-03-01T12:23:00;11.90;23.10
9118;DHT22;4594;50.994;7.126;2023-03-01T12:26:04;11.80;23.10
9118;DHT22;4594;50.994;7.126;2023-03-01T12:37:14;11.50;23.20
9118;DHT22;4594;50.994;7.126;2023-03-01T12:40:23;11.40;23.20
9118;DHT22;4594;50.994;7.126;2023-03-01T12:43:17;11.30;23.00
9118;DHT22;4594;50.994;7.126;2023-03-01T12:49:10;11.20;23.10
9118;DHT22;4594;50.994;7.126;2023-03-01T12:51:44;11.10;23.20
9118;DHT22;4594;50.994;7.126;2023-03-01T12:54:26;11.10;23.30
9118;DHT22;4594;50.994;7.126;2023-03-01T12:56:54;11.10;23.30
9118;DHT22;4594;50.994;7.126;2023-03-01T12:59:34;11.10;23.30
9118;DHT22;4594;50.994;7.126;2023-03-01T13:10:46;11.10;23.50
9118;DHT22;4594;50.994;7.126;2023-03-01T13:13:24;11.10;23.40
9118;DHT22;4594;50.994;7.126;2023-03-01T13:15:51;11.10;23.50
9118;DHT22;4594;50.994;7.126;2023-03-01T13:20:48;11.00;23.50
9118;DHT22;4594;50.994;7.126;2023-03-01T13:28:52;11.10;23.70
9118;DHT22;4594;50.994;7.126;2023-03-01T13:33:53;11.10;23.60
9118;DHT22;4594;50.994;7.126;2023-03-01T13:44:26;11.00;23.60
9118;DHT22;4594;50.994;7.126;2023-03-01T13:47:03;11.00;23.60
9118;DHT22;4594;50.994;7.126;2023-03-01T13:52:37;11.00;23.60
9118;DHT22;4594;50.994;7.126;2023-03-01T13:55:41;11.00;23.50
9118;DHT22;4594;50.994;7.126;2023-03-01T14:00:57;11.00;23.50
9118;DHT22;4594;50.994;7.126;2023-03-01T14:03:24;11.00;23.50
9118;DHT22;4594;50.994;7.126;2023-03-01T14:06:08;11.00;23.60
9118;DHT22;4594;50.994;7.126;2023-03-01T14:08:37;11.00;23.60
9118;DHT22;4594;50.994;7.126;2023-03-01T14:11:28;11.00;23.60
9118;DHT22;4594;50.994;7.126;2023-03-01T14:14:30;11.00;23.60
9118;DHT22;4594;50.994;7.126;2023-03-01T14:20:07;11.00;23.70
9118;DHT22;4594;50.994;7.126;2023-03-01T14:22:41;11.00;23.70
9118;DHT22;4594;50.994;7.126;2023-03-01T14:25:22;11.00;23.70
9118;DHT22;4594;50.994;7.126;2023-03-01T14:28:14;11.00;23.80
9118;DHT22;4594;50.994;7.126;2023-03-01T14:30:46;11.00;23.90
9118;DHT22;4594;50.994;7.126;2023-03-01T14:33:31;10.90;23.80
9118;DHT22;4594;50.994;7.126;2023-03-01T14:36:07;10.90;23.90
9118;DHT22;4594;50.994;7.126;2023-03-01T14:38:44;10.90;24.00
9118;DHT22;4594;50.994;7.126;2023-03-01T14:41:20;10.90;24.00
9118;DHT22;4594;50.994;7.126;2023-03-01T14:43:53;10.80;24.00
9118;DHT22;4594;50.994;7.126;2023-03-01T14:46:35;10.80;24.00
9118;DHT22;4594;50.994;7.126;2023-03-01T14:49:32;10.80;24.00
9118;DHT22;4594;50.994;7.126;2023-03-01T14:52:16;10.80;24.20
9118;DHT22;4594;50.994;7.126;2023-03-01T14:54:48;10.70;24.10
9118;DHT22;4594;50.994;7.126;2023-03-01T14:57:22;10.70;24.10
9118;DHT22;4594;50.994;7.126;2023-03-01T14:59:52;10.70;24.10
9118;DHT22;4594;50.994;7.126;2023-03-01T15:02:25;10.60;24.00
9118;DHT22;4594;50.994;7.126;2023-03-01T15:04:55;10.60;24.10
9118;DHT22;4594;50.994;7.126;2023-03-01T15:07:28;10.50;24.10
9118;DHT22;4594;50.994;7.126;2023-03-01T15:09:58;10.50;24.10
9118;DHT22;4594;50.994;7.126;2023-03-01T15:14:52;10.40;24.00
9118;DHT22;4594;50.994;7.126;2023-03-01T15:17:36;10.40;24.00
9118;DHT22;4594;50.994;7.126;2023-03-01T15:20:16;10.40;24.10
9118;DHT22;4594;50.994;7.126;2023-03-01T15:22:45;10.40;24.10
9118;DHT22;4594;50.994;7.126;2023-03-01T15:25:20;10.30;24.00
9118;DHT22;4594;50.994;7.126;2023-03-01T15:27:51;10.30;24.00
9118;DHT22;4594;50.994;7.126;2023-03-01T15:30:25;10.30;24.00
9118;DHT22;4594;50.994;7.126;2023-03-01T15:35:58;10.20;24.10
9118;DHT22;4594;50.994;7.126;2023-03-01T15:38:51;10.20;24.00
9118;DHT22;4594;50.994;7.126;2023-03-01T15:41:46;10.10;24.00
9118;DHT22;4594;50.994;7.126;2023-03-01T15:44:31;10.10;24.10
9118;DHT22;4594;50.994;7.126;2023-03-01T15:46:59;10.10;24.10
9118;DHT22;4594;50.994;7.126;2023-03-01T15:49:40;10.00;23.90
9118;DHT22;4594;50.994;7.126;2023-03-01T15:52:19;10.00;24.00
9118;DHT22;4594;50.994;7.126;2023-03-01T15:54:55;10.00;24.00
9118;DHT22;4594;50.994;7.126;2023-03-01T15:57:22;10.00;24.00
9118;DHT22;4594;50.994;7.126;2023-03-01T15:59:48;9.90;24.60
9118;DHT22;4594;50.994;7.126;2023-03-01T16:02:14;9.90;24.60
9118;DHT22;4594;50.994;7.126;2023-03-01T16:04:40;9.90;24.60
9118;DHT22;4594;50.994;7.126;2023-03-01T16:07:06;9.90;24.60
9118;DHT22;4594;50.994;7.126;2023-03-01T16:09:33;9.90;24.60
9118;DHT22;4594;50.994;7.126;2023-03-01T16:11:59;9.80;24.60
9118;DHT22;4594;50.994;7.126;2023-03-01T16:14:24;9.80;24.60
9118;DHT22;4594;50.994;7.126;2023-03-01T16:16:50;9.80;24.60
9118;DHT22;4594;50.994;7.126;2023-03-01T16:19:16;9.70;24.60
9118;DHT22;4594;50.994;7.126;2023-03-01T16:21:42;9.70;24.60
9118;DHT22;4594;50.994;7.126;2023-03-01T16:24:09;9.70;24.60
9118;DHT22;4594;50.994;7.126;2023-03-01T16:26:36;9.60;24.60
9118;DHT22;4594;50.994;7.126;2023-03-01T16:29:03;9.60;24.60
9118;DHT22;4594;50.994;7.126;2023-03-01T16:31:28;9.60;24.60
9118;DHT22;4594;50.994;7.126;2023-03-01T16:33:55;9.50;24.60
9118;DHT22;4594;50.994;7.126;2023-03-01T16:36:23;9.50;24.60
9118;DHT22;4594;50.994;7.126;2023-03-01T16:38:54;9.40;24.60
9118;DHT22;4594;50.994;7.126;2023-03-01T16:41:23;9.30;24.60
9118;DHT22;4594;50.994;7.126;2023-03-01T16:43:49;9.30;24.60
9118;DHT22;4594;50.994;7.126;2023-03-01T16:46:27;9.30;24.60
9118;DHT22;4594;50.994;7.126;2023-03-01T16:48:54;9.20;24.50
9118;DHT22;4594;50.994;7.126;2023-03-01T16:51:21;9.20;24.60
9118;DHT22;4594;50.994;7.126;2023-03-01T16:53:47;9.10;24.50
9118;DHT22;4594;50.994;7.126;2023-03-01T16:56:14;9.10;24.60
9118;DHT22;4594;50.994;7.126;2023-03-01T16:58:42;9.00;24.50
9118;DHT22;4594;50.994;7.126;2023-03-01T17:01:18;9.00;24.50
9118;DHT22;4594;50.994;7.126;2023-03-01T17:03:46;8.90;24.50
9118;DHT22;4594;50.994;7.126;2023-03-01T17:06:17;8.90;24.60
9118;DHT22;4594;50.994;7.126;2023-03-01T17:08:46;8.80;24.50
9118;DHT22;4594;50.994;7.126;2023-03-01T17:11:14;8.70;24.50
9118;DHT22;4594;50.994;7.126;2023-03-01T17:13:42;8.70;24.50
9118;DHT22;4594;50.994;7.126;2023-03-01T17:16:10;8.60;24.50
9118;DHT22;4594;50.994;7.126;2023-03-01T17:18:38;8.50;24.50
9118;DHT22;4594;50.994;7.126;2023-03-01T17:21:05;8.50;24.50
9118;DHT22;4594;50.994;7.126;2023-03-01T17:23:33;8.40;24.40
9118;DHT22;4594;50.994;7.126;2023-03-01T17:25:59;8.40;24.40
9118;DHT22;4594;50.994;7.126;2023-03-01T17:28:28;8.30;24.40
9118;DHT22;4594;50.994;7.126;2023-03-01T17:30:55;8.20;24.40
9118;DHT22;4594;50.994;7.126;2023-03-01T17:33:21;8.20;24.40
9118;DHT22;4594;50.994;7.126;2023-03-01T17:35:47;8.10;24.40
9118;DHT22;4594;50.994;7.126;2023-03-01T17:38:14;8.00;24.40
9118;DHT22;4594;50.994;7.126;2023-03-01T17:40:41;8.00;24.40
9118;DHT22;4594;50.994;7.126;2023-03-01T17:43:10;7.90;24.30
9118;DHT22;4594;50.994;7.126;2023-03-01T17:45:37;7.80;24.30
9118;DHT22;4594;50.994;7.126;2023-03-01T17:48:04;7.80;24.40
9118;DHT22;4594;50.994;7.126;2023-03-01T17:50:32;7.70;24.40
9118;DHT22;4594;50.994;7.126;2023-03-01T17:52:58;7.70;24.40
9118;DHT22;4594;50.994;7.126;2023-03-01T17:55:24;7.60;24.40
9118;DHT22;4594;50.994;7.126;2023-03-01T17:57:50;7.50;24.40
9118;DHT22;4594;50.994;7.126;2023-03-01T18:00:16;7.50;24.40
9118;DHT22;4594;50.994;7.126;2023-03-01T18:02:43;7.40;24.40
9118;DHT22;4594;50.994;7.126;2023-03-01T18:05:09;7.40;24.40
9118;DHT22;4594;50.994;7.126;2023-03-01T18:07:35;7.30;24.30
9118;DHT22;4594;50.994;7.126;2023-03-01T18:10:02;7.30;24.40
9118;DHT22;4594;50.994;7.126;2023-03-01T18:12:30;7.20;24.30
9118;DHT22;4594;50.994;7.126;2023-03-01T18:14:56;7.20;24.40